createdAt,value
2019-02-09T00:04:38.198Z,4.43
2019-02-09T00:09:37.754Z,4.40
2019-02-09T00:14:37.289Z,4.47
2019-02-09T00:19:36.821Z,4.07
2019-02-09T00:24:36.366Z,5.97
2019-02-09T00:29:35.886Z,4.23
2019-02-09T00:34:35.416Z,3.80
2019-02-09T00:39:34.951Z,3.90
2019-02-09T00:44:34.494Z,3.60
2019-02-09T00:49:34.036Z,3.87
2019-02-09T00:54:33.576Z,3.97
2019-02-09T00:59:33.162Z,3.70
2019-02-09T01:04:32.699Z,2.90
2019-02-09T01:09:32.238Z,4.03
2019-02-09T01:14:32.085Z,4.10
2019-02-09T01:19:31.617Z,3.47
2019-02-09T01:24:32.499Z,3.10
2019-02-09T01:29:33.377Z,3.67
2019-02-09T01:34:32.905Z,3.13
2019-02-09T01:39:32.458Z,3.13
2019-02-09T01:44:32.021Z,3.03
2019-02-09T01:49:31.562Z,2.83
2019-02-09T01:54:31.094Z,3.17
2019-02-09T01:59:30.906Z,3.13
2019-02-09T02:04:30.447Z,3.50
2019-02-09T02:09:30.063Z,2.53
2019-02-09T02:14:29.697Z,3.80
2019-02-09T02:19:29.246Z,2.57
2019-02-09T02:24:28.791Z,2.60
2019-02-09T02:29:28.330Z,3.10
2019-02-09T02:34:27.875Z,2.80
2019-02-09T02:39:27.417Z,3.40
2019-02-09T02:44:26.945Z,2.80
2019-02-09T02:49:26.555Z,3.60
2019-02-09T02:54:26.087Z,3.30
2019-02-09T02:59:25.771Z,2.03
2019-02-09T03:04:25.308Z,2.57
2019-02-09T03:09:24.915Z,2.40
2019-02-09T03:14:24.458Z,2.30
2019-02-09T03:19:23.989Z,2.50
2019-02-09T03:24:24.746Z,2.20
2019-02-09T03:29:24.338Z,2.30
2019-02-09T03:34:23.866Z,1.87
2019-02-09T03:39:23.408Z,1.73
2019-02-09T03:44:22.951Z,2.67
2019-02-09T03:49:22.488Z,1.77
2019-02-09T03:54:22.023Z,1.67
2019-02-09T03:59:21.571Z,1.90
2019-02-09T04:04:21.182Z,1.80
2019-02-09T04:09:20.718Z,1.60
2019-02-09T04:14:20.260Z,1.70
2019-02-09T04:19:19.795Z,1.73
2019-02-09T04:24:19.339Z,1.70
2019-02-09T04:29:18.875Z,1.63
2019-02-09T04:34:18.405Z,2.00
2019-02-09T04:39:17.951Z,2.17
2019-02-09T04:44:17.498Z,1.50
2019-02-09T04:49:17.028Z,1.60
2019-02-09T04:54:16.678Z,2.77
2019-02-09T04:59:16.291Z,1.53
2019-02-09T05:04:15.828Z,1.73
2019-02-09T05:09:15.380Z,1.73
2019-02-09T05:14:14.975Z,1.57
2019-02-09T05:19:14.527Z,1.23
2019-02-09T05:24:14.084Z,1.50
2019-02-09T05:29:13.657Z,1.57
2019-02-09T05:34:13.274Z,1.43
2019-02-09T05:39:12.805Z,2.20
2019-02-09T05:44:12.373Z,1.63
2019-02-09T05:49:11.943Z,2.03
2019-02-09T05:54:11.558Z,1.60
2019-02-09T05:59:11.115Z,1.67
2019-02-09T06:04:10.743Z,1.80
2019-02-09T06:09:10.316Z,1.90
2019-02-09T06:14:09.890Z,2.17
2019-02-09T06:19:09.438Z,1.77
2019-02-09T06:24:08.970Z,2.33
2019-02-09T06:29:08.510Z,1.93
2019-02-09T06:34:08.234Z,2.10
2019-02-09T06:39:08.659Z,1.77
2019-02-09T06:44:08.260Z,1.70
2019-02-09T06:49:07.799Z,1.93
2019-02-09T06:54:07.415Z,1.60
2019-02-09T06:59:06.946Z,2.20
2019-02-09T07:04:08.042Z,1.40
2019-02-09T07:09:09.135Z,1.60
2019-02-09T07:14:08.773Z,1.77
2019-02-09T07:19:08.298Z,1.73
2019-02-09T07:24:07.858Z,1.83
2019-02-09T07:29:07.395Z,2.13
2019-02-09T07:34:06.977Z,2.27
2019-02-09T07:39:09.096Z,2.50
2019-02-09T07:44:08.711Z,1.83
2019-02-09T07:49:08.249Z,2.60
2019-02-09T07:54:07.936Z,2.77
2019-02-09T07:59:07.467Z,2.33
2019-02-09T08:04:07.403Z,1.73
2019-02-09T08:09:11.761Z,2.23
2019-02-09T08:14:11.306Z,2.20
2019-02-09T08:19:11.010Z,2.10
2019-02-09T08:24:10.718Z,2.20
2019-02-09T08:29:10.272Z,3.03
2019-02-09T08:34:09.878Z,2.50
2019-02-09T08:39:09.434Z,2.27
2019-02-09T08:44:09.025Z,2.00
2019-02-09T08:49:08.715Z,2.17
2019-02-09T08:54:08.254Z,2.10
2019-02-09T08:59:07.798Z,2.43
2019-02-09T09:04:07.411Z,1.70
2019-02-09T09:09:10.442Z,2.17
2019-02-09T09:14:09.984Z,1.90
2019-02-09T09:19:09.558Z,1.27
2019-02-09T09:24:10.081Z,1.43
2019-02-09T09:29:10.045Z,1.40
2019-02-09T09:34:29.869Z,1.80
2019-02-09T09:39:29.738Z,1.53
2019-02-09T09:44:29.303Z,1.50
2019-02-09T09:49:28.913Z,1.30
2019-02-09T09:54:28.510Z,1.27
2019-02-09T09:59:29.262Z,1.07
2019-02-09T10:04:28.849Z,1.30
2019-02-09T10:09:28.407Z,1.30
2019-02-09T10:14:27.945Z,1.70
2019-02-09T10:19:27.493Z,1.77
2019-02-09T10:24:27.078Z,1.60
2019-02-09T10:29:26.758Z,0.93
2019-02-09T10:34:26.382Z,0.90
2019-02-09T10:39:25.926Z,0.80
2019-02-09T10:44:25.494Z,0.93
2019-02-09T10:49:25.039Z,1.40
2019-02-09T10:54:24.664Z,1.27
2019-02-09T10:59:24.196Z,0.80
2019-02-09T11:04:23.730Z,0.83
2019-02-09T11:09:25.540Z,1.00
2019-02-09T11:14:25.146Z,0.73
2019-02-09T11:19:24.682Z,0.93
2019-02-09T11:24:24.215Z,0.80
2019-02-09T11:29:23.754Z,0.70
2019-02-09T11:34:23.329Z,1.00
2019-02-09T11:39:23.771Z,1.10
2019-02-09T11:44:23.316Z,0.70
2019-02-09T11:49:22.847Z,0.80
2019-02-09T11:54:22.412Z,0.83
2019-02-09T11:59:22.018Z,0.60
2019-02-09T12:04:21.573Z,0.60
2019-02-09T12:09:21.106Z,0.83
2019-02-09T12:14:20.673Z,0.87
2019-02-09T12:19:20.224Z,0.80
2019-02-09T12:24:19.768Z,0.90
2019-02-09T12:29:19.326Z,0.80
2019-02-09T12:34:18.863Z,1.03
2019-02-09T12:39:18.404Z,0.77
2019-02-09T12:44:17.934Z,0.60
2019-02-09T12:49:17.512Z,0.70
2019-02-09T12:54:17.058Z,0.70
2019-02-09T12:59:16.599Z,0.60
2019-02-09T13:04:16.144Z,0.83
2019-02-09T13:09:15.674Z,0.70
2019-02-09T13:14:15.218Z,0.70
2019-02-09T13:19:14.754Z,0.60
2019-02-09T13:24:14.294Z,0.77
2019-02-09T13:29:14.222Z,0.60
2019-02-09T13:34:13.769Z,0.70
2019-02-09T13:39:13.303Z,1.20
2019-02-09T13:44:12.864Z,0.77
2019-02-09T13:49:12.414Z,0.97
2019-02-09T13:54:13.018Z,1.20
2019-02-09T13:59:12.558Z,0.80
2019-02-09T14:04:12.099Z,2.00
2019-02-09T14:09:11.712Z,0.70
2019-02-09T14:14:11.458Z,0.90
2019-02-09T14:19:10.997Z,0.73
2019-02-09T14:24:11.291Z,0.77
2019-02-09T14:29:11.059Z,0.80
2019-02-09T14:34:10.795Z,0.80
2019-02-09T14:39:13.454Z,1.10
2019-02-09T14:44:12.998Z,1.00
2019-02-09T14:49:12.549Z,0.90
2019-02-09T14:54:12.091Z,1.10
2019-02-09T14:59:11.659Z,1.10
2019-02-09T15:04:11.199Z,1.17
2019-02-09T15:09:10.758Z,0.80
2019-02-09T15:14:10.387Z,0.70
2019-02-09T15:19:09.931Z,0.70
2019-02-09T15:24:09.530Z,0.70
2019-02-09T15:29:10.192Z,0.90
2019-02-09T15:34:10.536Z,0.73
2019-02-09T15:39:10.419Z,0.73
2019-02-09T15:44:09.963Z,0.97
2019-02-09T15:49:09.511Z,0.83
2019-02-09T15:54:09.054Z,0.80
2019-02-09T15:59:08.590Z,1.00
2019-02-09T16:04:08.141Z,1.27
2019-02-09T16:09:09.598Z,0.70
2019-02-09T16:14:11.192Z,1.53
2019-02-09T16:19:11.874Z,0.97
2019-02-09T16:24:12.499Z,0.90
2019-02-09T16:29:12.086Z,1.03
2019-02-09T16:34:11.661Z,1.43
2019-02-09T16:39:12.747Z,1.10
2019-02-09T16:44:13.345Z,1.20
2019-02-09T16:49:12.910Z,1.10
2019-02-09T16:54:13.968Z,2.00
2019-02-09T16:59:15.687Z,1.13
2019-02-09T17:04:15.390Z,1.30
2019-02-09T17:09:15.074Z,1.40
2019-02-09T17:14:14.699Z,1.20
2019-02-09T17:19:14.230Z,1.40
2019-02-09T17:24:13.773Z,1.50
2019-02-09T17:29:13.319Z,1.43
2019-02-09T17:34:12.963Z,1.07
2019-02-09T17:39:13.087Z,1.40
2019-02-09T17:44:12.894Z,1.13
2019-02-09T17:49:12.451Z,1.60
2019-02-09T17:54:13.396Z,1.93
2019-02-09T17:59:15.566Z,1.17
2019-02-09T18:04:18.842Z,1.57
2019-02-09T18:09:20.547Z,1.00
2019-02-09T18:14:20.299Z,1.80
2019-02-09T18:19:19.910Z,1.83
2019-02-09T18:24:20.165Z,1.17
2019-02-09T18:29:20.799Z,1.43
2019-02-09T18:34:21.466Z,1.57
2019-02-09T18:39:22.128Z,1.43
2019-02-09T18:44:22.083Z,1.20
2019-02-09T18:49:21.618Z,1.33
2019-02-09T18:54:21.805Z,1.77
2019-02-09T18:59:21.406Z,1.40
2019-02-09T19:04:21.670Z,2.33
2019-02-09T19:09:22.345Z,1.60
2019-02-09T19:14:22.195Z,1.73
2019-02-09T19:19:21.723Z,2.20
2019-02-09T19:24:22.298Z,1.13
2019-02-09T19:29:21.846Z,1.13
2019-02-09T19:34:23.832Z,1.07
2019-02-09T19:39:33.093Z,1.20
2019-02-09T19:44:32.735Z,2.03
2019-02-09T19:49:32.274Z,1.83
2019-02-09T19:54:31.835Z,2.17
2019-02-09T19:59:31.398Z,1.30
2019-02-09T20:04:31.376Z,1.77
2019-02-09T20:09:30.900Z,1.73
2019-02-09T20:14:30.452Z,1.53
2019-02-09T20:19:30.152Z,1.90
2019-02-09T20:24:30.004Z,1.63
2019-02-09T20:29:29.529Z,1.63
2019-02-09T20:34:29.078Z,1.50
2019-02-09T20:39:28.695Z,1.83
2019-02-09T20:44:28.222Z,1.33
2019-02-09T20:49:27.928Z,1.80
2019-02-09T20:54:27.454Z,2.13
2019-02-09T20:59:26.991Z,1.20
2019-02-09T21:04:26.531Z,1.30
2019-02-09T21:09:26.066Z,1.70
2019-02-09T21:14:25.678Z,1.10
2019-02-09T21:19:25.224Z,1.30
2019-02-09T21:24:24.758Z,1.40
2019-02-09T21:29:24.291Z,1.80
2019-02-09T21:34:23.839Z,2.00
2019-02-09T21:39:33.482Z,2.20
2019-02-09T21:44:31.062Z,2.30
2019-02-09T21:49:30.491Z,1.47
2019-02-09T21:54:30.027Z,1.50
2019-02-09T21:59:29.565Z,1.70
2019-02-09T22:04:29.093Z,1.40
2019-02-09T22:09:29.371Z,1.10
2019-02-09T22:14:28.976Z,1.40
2019-02-09T22:19:28.632Z,1.80
2019-02-09T22:24:28.219Z,1.80
2019-02-09T22:29:27.764Z,1.57
2019-02-09T22:34:27.325Z,1.83
2019-02-09T22:39:26.875Z,2.00
2019-02-09T22:44:26.414Z,1.87
2019-02-09T22:49:26.023Z,1.60
2019-02-09T22:54:25.570Z,1.13
2019-02-09T22:59:25.119Z,1.10
2019-02-09T23:04:40.040Z,1.77
2019-02-09T23:09:39.570Z,1.10
2019-02-09T23:14:39.109Z,1.40
2019-02-09T23:19:38.641Z,1.80
2019-02-09T23:24:38.193Z,1.60
2019-02-09T23:29:37.798Z,1.40
2019-02-09T23:34:37.340Z,3.60
2019-02-09T23:39:36.887Z,0.93
2019-02-09T23:44:36.419Z,1.30
2019-02-09T23:49:35.958Z,1.60
2019-02-09T23:54:35.494Z,1.27
2019-02-09T23:59:35.048Z,1.57
